Howells, Nebraska
Current Conditions -  °F | °C
As of 5:15 AM on Saturday 20 Dec 2014 (Local Time) from KOLU Reporting Station
Overcast Overcast  
Wind Chill: 32°   Ceiling: 500
Heat Index: 32°   Visibility: 4mi
Dew Point: 28°   Wind: 3mph
Humidity: 87%   Direction: 170°S
Pressure: 30.07"   Gusts: NA
Location:  41.73°N, 97°W
Report Text: KOLU 201115Z AUTO 17003KT 4SM OVC005 00/M02 A3007 RMK AO1
Loading
Personal Weather Stations






























Interactive Weather Map New forecast layout! Learn more

10-Day Weather Forecast

Advertisements
Track Severe Weather on mobile